createdAt,value
2018-09-03T00:03:28.465Z,18.30
2018-09-03T00:08:31.710Z,18.30
2018-09-03T00:13:34.926Z,18.30
2018-09-03T00:18:38.114Z,18.30
2018-09-03T00:23:41.342Z,18.10
2018-09-03T00:28:44.514Z,18.00
2018-09-03T00:33:52.990Z,17.90
2018-09-03T00:39:01.694Z,17.60
2018-09-03T00:44:10.141Z,17.50
2018-09-03T00:49:13.302Z,17.50
2018-09-03T00:54:16.530Z,17.40
2018-09-03T00:59:19.677Z,17.30
2018-09-03T01:04:22.861Z,17.20
2018-09-03T01:09:26.046Z,17.20
2018-09-03T01:14:29.222Z,17.10
2018-09-03T01:19:32.398Z,17.00
2018-09-03T01:24:36.627Z,17.10
2018-09-03T01:29:39.909Z,17.00
2018-09-03T01:34:43.038Z,16.90
2018-09-03T01:39:53.294Z,16.90
2018-09-03T01:44:56.505Z,16.80
2018-09-03T01:49:59.709Z,16.80
2018-09-03T01:55:02.927Z,16.60
2018-09-03T02:00:06.278Z,16.60
2018-09-03T02:05:09.551Z,16.60
2018-09-03T02:10:12.803Z,16.60
2018-09-03T02:15:16.131Z,16.60
2018-09-03T02:20:19.338Z,16.50
2018-09-03T02:25:22.595Z,16.40
2018-09-03T02:30:25.979Z,16.40
2018-09-03T02:35:29.225Z,16.50
2018-09-03T02:40:32.422Z,16.60
2018-09-03T02:45:35.681Z,16.50
2018-09-03T02:50:39.538Z,16.60
2018-09-03T02:55:42.726Z,16.60
2018-09-03T03:00:45.935Z,16.70
2018-09-03T03:05:49.134Z,16.70
2018-09-03T03:10:52.365Z,16.70
2018-09-03T03:15:55.574Z,16.70
2018-09-03T03:20:58.786Z,16.70
2018-09-03T03:26:02.010Z,16.70
2018-09-03T03:31:05.235Z,16.80
2018-09-03T03:36:08.506Z,16.80
2018-09-03T03:41:11.706Z,16.80
2018-09-03T03:46:14.932Z,16.80
2018-09-03T03:51:18.121Z,16.90
2018-09-03T03:56:21.342Z,16.90
2018-09-03T04:01:24.575Z,16.90
2018-09-03T04:06:28.013Z,16.90
2018-09-03T04:11:31.233Z,16.90
2018-09-03T04:16:34.446Z,16.80
2018-09-03T04:21:37.689Z,16.80
2018-09-03T04:26:40.935Z,16.70
2018-09-03T04:31:44.199Z,16.70
2018-09-03T04:36:47.456Z,16.60
2018-09-03T04:41:50.705Z,16.60
2018-09-03T04:46:53.946Z,16.50
2018-09-03T04:51:57.281Z,16.40
2018-09-03T04:57:00.502Z,16.30
2018-09-03T05:02:03.955Z,16.40
2018-09-03T05:07:07.267Z,16.40
2018-09-03T05:12:10.509Z,16.30
2018-09-03T05:17:13.733Z,16.40
2018-09-03T05:22:16.955Z,16.40
2018-09-03T05:27:20.163Z,16.50
2018-09-03T05:32:23.375Z,16.60
2018-09-03T05:37:26.606Z,16.70
2018-09-03T05:42:29.963Z,16.70
2018-09-03T05:47:33.254Z,16.70
2018-09-03T05:52:36.489Z,16.80
2018-09-03T05:57:39.785Z,16.80
2018-09-03T06:02:43.158Z,16.80
2018-09-03T06:07:46.375Z,16.90
2018-09-03T06:12:49.598Z,16.90
2018-09-03T06:17:52.871Z,16.90
2018-09-03T06:22:56.185Z,16.90
2018-09-03T06:27:59.454Z,17.00
2018-09-03T06:33:02.701Z,17.10
2018-09-03T06:38:05.990Z,17.20
2018-09-03T06:43:09.255Z,17.20
2018-09-03T06:48:12.521Z,17.20
2018-09-03T06:53:15.964Z,17.40
2018-09-03T06:58:19.213Z,17.50
2018-09-03T07:03:22.424Z,17.60
2018-09-03T07:08:25.634Z,17.60
2018-09-03T07:13:28.862Z,17.50
2018-09-03T07:18:32.182Z,17.50
2018-09-03T07:23:38.775Z,17.40
2018-09-03T07:28:42.110Z,17.40
2018-09-03T07:33:45.291Z,17.30
2018-09-03T07:38:49.026Z,17.30
2018-09-03T07:43:52.307Z,17.30
2018-09-03T07:48:55.538Z,17.30
2018-09-03T07:53:58.774Z,17.30
2018-09-03T07:59:02.316Z,17.30
2018-09-03T08:04:05.841Z,17.30
2018-09-03T08:09:11.322Z,17.30
2018-09-03T08:14:14.538Z,17.40
2018-09-03T08:19:17.758Z,17.50
2018-09-03T08:24:20.979Z,17.60
2018-09-03T08:29:24.435Z,17.60
2018-09-03T08:34:27.641Z,17.60
2018-09-03T08:39:31.795Z,17.60
2018-09-03T08:44:35.029Z,17.60
2018-09-03T08:49:38.296Z,17.70
2018-09-03T08:54:41.666Z,17.70
2018-09-03T08:59:44.890Z,17.80
2018-09-03T09:04:48.123Z,17.80
2018-09-03T09:09:51.694Z,18.00
2018-09-03T09:14:54.950Z,18.10
2018-09-03T09:19:58.262Z,18.30
2018-09-03T09:25:01.543Z,18.40
2018-09-03T09:30:05.422Z,18.60
2018-09-03T09:35:08.669Z,18.70
2018-09-03T09:40:11.891Z,18.50
2018-09-03T09:45:15.142Z,18.60
2018-09-03T09:50:18.340Z,18.60
2018-09-03T09:55:21.542Z,18.70
2018-09-03T10:00:30.234Z,18.80
2018-09-03T10:05:33.440Z,18.80
2018-09-03T10:10:36.695Z,19.00
2018-09-03T10:15:39.913Z,19.10
2018-09-03T10:20:43.113Z,19.20
2018-09-03T10:25:46.333Z,19.20
2018-09-03T10:30:50.075Z,19.10
2018-09-03T10:35:53.277Z,19.20
2018-09-03T10:40:56.519Z,19.40
2018-09-03T10:45:59.773Z,19.50
2018-09-03T10:51:03.006Z,19.60
2018-09-03T10:56:06.455Z,19.90
2018-09-03T11:01:09.650Z,20.10
2018-09-03T11:06:12.861Z,20.20
2018-09-03T11:11:16.116Z,20.20
2018-09-03T11:16:19.396Z,20.30
2018-09-03T11:21:22.757Z,20.40
2018-09-03T11:26:26.015Z,20.60
2018-09-03T11:31:29.258Z,20.80
2018-09-03T11:36:32.489Z,20.80
2018-09-03T11:41:35.765Z,20.70
2018-09-03T11:46:38.991Z,20.80
2018-09-03T11:51:42.206Z,20.80
2018-09-03T11:56:45.434Z,20.80
2018-09-03T12:01:48.679Z,20.90
2018-09-03T12:06:51.894Z,20.90
2018-09-03T12:11:55.120Z,20.90
2018-09-03T12:16:59.746Z,21.00
2018-09-03T12:22:02.957Z,21.10
2018-09-03T12:27:06.165Z,21.20
2018-09-03T12:32:09.440Z,21.00
2018-09-03T12:37:12.725Z,21.00
2018-09-03T12:42:18.075Z,20.90
2018-09-03T12:47:21.316Z,21.00
2018-09-03T12:52:24.631Z,21.00
2018-09-03T12:57:27.853Z,21.20
2018-09-03T13:02:39.411Z,21.20
2018-09-03T13:07:34.427Z,21.30
2018-09-03T13:12:38.742Z,21.30
2018-09-03T13:17:41.995Z,21.50
2018-09-03T13:22:45.800Z,21.70
2018-09-03T13:27:49.102Z,22.00
2018-09-03T13:32:52.357Z,21.90
2018-09-03T13:37:55.654Z,22.00
2018-09-03T13:42:58.871Z,22.20
2018-09-03T13:48:02.169Z,22.30
2018-09-03T13:53:06.158Z,22.20
2018-09-03T13:58:09.414Z,22.10
2018-09-03T14:03:14.814Z,22.00
2018-09-03T14:08:18.057Z,21.80
2018-09-03T14:13:22.342Z,21.60
2018-09-03T14:18:27.746Z,21.40
2018-09-03T14:23:32.142Z,21.20
2018-09-03T14:28:35.558Z,21.10
2018-09-03T14:33:39.666Z,21.10
2018-09-03T14:38:43.940Z,21.00
2018-09-03T14:43:47.298Z,21.00
2018-09-03T14:48:52.724Z,21.00
2018-09-03T14:53:56.106Z,21.10
2018-09-03T14:59:00.327Z,21.10
2018-09-03T15:04:04.147Z,21.10
2018-09-03T15:09:08.645Z,21.10
2018-09-03T15:14:11.906Z,21.10
2018-09-03T15:19:15.278Z,21.00
2018-09-03T15:24:18.507Z,20.90
2018-09-03T15:29:21.734Z,20.80
2018-09-03T15:34:25.159Z,20.80
2018-09-03T15:39:30.463Z,20.70
2018-09-03T15:44:33.694Z,20.70
2018-09-03T15:49:36.966Z,20.70
2018-09-03T15:54:40.723Z,20.60
2018-09-03T15:59:44.069Z,20.70
2018-09-03T16:04:47.302Z,20.80
2018-09-03T16:09:50.517Z,20.80
2018-09-03T16:14:53.770Z,20.90
2018-09-03T16:20:05.011Z,20.80
2018-09-03T16:25:08.222Z,20.70
2018-09-03T16:30:11.459Z,20.80
2018-09-03T16:35:14.674Z,20.90
2018-09-03T16:40:17.908Z,21.00
2018-09-03T16:45:21.262Z,20.80
2018-09-03T16:50:24.705Z,20.70
2018-09-03T16:55:27.937Z,20.60
2018-09-03T17:00:31.128Z,20.50
2018-09-03T17:05:34.393Z,20.50
2018-09-03T17:10:37.692Z,20.50
2018-09-03T17:15:41.057Z,20.50
2018-09-03T17:20:44.265Z,20.50
2018-09-03T17:25:47.485Z,20.40
2018-09-03T17:30:50.702Z,20.40
2018-09-03T17:35:53.976Z,20.40
2018-09-03T17:40:57.249Z,20.30
2018-09-03T17:46:00.475Z,20.30
2018-09-03T17:51:03.691Z,20.30
2018-09-03T17:56:06.914Z,20.30
2018-09-03T18:01:10.222Z,20.20
2018-09-03T18:06:13.544Z,20.10
2018-09-03T18:11:16.771Z,20.10
2018-09-03T18:16:20.117Z,20.00
2018-09-03T18:21:23.296Z,20.00
2018-09-03T18:26:26.679Z,19.90
2018-09-03T18:31:29.906Z,19.90
2018-09-03T18:36:33.155Z,19.90
2018-09-03T18:41:36.452Z,19.80
2018-09-03T18:46:39.626Z,19.70
2018-09-03T18:51:42.839Z,19.70
2018-09-03T18:56:46.047Z,19.70
2018-09-03T19:01:49.355Z,19.80
2018-09-03T19:06:52.556Z,19.80
2018-09-03T19:11:55.791Z,19.70
2018-09-03T19:16:59.174Z,19.80
2018-09-03T19:22:02.536Z,19.80
2018-09-03T19:27:06.670Z,19.90
2018-09-03T19:32:10.979Z,19.80
2018-09-03T19:37:14.179Z,19.70
2018-09-03T19:42:17.434Z,19.60
2018-09-03T19:47:20.661Z,19.60
2018-09-03T19:52:23.927Z,19.50
2018-09-03T19:57:27.489Z,19.50
2018-09-03T20:02:30.746Z,19.40
2018-09-03T20:07:34.138Z,19.30
2018-09-03T20:12:38.378Z,19.30
2018-09-03T20:17:41.716Z,19.30
2018-09-03T20:22:45.031Z,19.30
2018-09-03T20:27:48.540Z,19.30
2018-09-03T20:32:51.854Z,19.20
2018-09-03T20:37:55.090Z,19.20
2018-09-03T20:42:58.378Z,19.20
2018-09-03T20:48:01.571Z,19.20
2018-09-03T20:53:04.909Z,19.20
2018-09-03T20:58:08.103Z,19.20
2018-09-03T21:03:11.463Z,19.30
2018-09-03T21:08:14.662Z,19.20
2018-09-03T21:13:17.834Z,19.20
2018-09-03T21:18:21.024Z,19.20
2018-09-03T21:23:24.274Z,19.20
2018-09-03T21:28:27.452Z,19.10
2018-09-03T21:33:30.615Z,19.10
2018-09-03T21:38:33.814Z,18.90
2018-09-03T21:43:37.113Z,18.80
2018-09-03T21:48:42.889Z,18.80
2018-09-03T21:53:47.172Z,18.70
2018-09-03T21:58:50.362Z,18.50
2018-09-03T22:03:53.566Z,18.40
2018-09-03T22:08:57.806Z,18.40
2018-09-03T22:14:01.019Z,18.40
2018-09-03T22:19:04.326Z,18.40
2018-09-03T22:24:07.554Z,18.30
2018-09-03T22:29:10.766Z,18.30
2018-09-03T22:34:14.137Z,18.20
2018-09-03T22:39:17.378Z,18.00
2018-09-03T22:44:20.679Z,18.00
2018-09-03T22:49:23.869Z,17.90
2018-09-03T22:54:27.131Z,17.90
2018-09-03T22:59:30.302Z,17.80
2018-09-03T23:04:33.538Z,17.70
2018-09-03T23:09:36.770Z,17.80
2018-09-03T23:14:39.988Z,17.80
2018-09-03T23:19:43.182Z,17.80
2018-09-03T23:24:46.360Z,17.70
2018-09-03T23:29:49.542Z,17.70
2018-09-03T23:34:52.741Z,17.60
2018-09-03T23:39:57.030Z,17.60
2018-09-03T23:45:00.219Z,17.50
2018-09-03T23:50:03.478Z,17.60
2018-09-03T23:55:06.805Z,17.60
